Time;durP1;ratioP1;P1;durP2;ratioP2;P2;SDS_P1;SDS_P2;PMS_P1;PMS_P2;Temp;Humidity;BMP_temperature;BMP_pressure;BME280_temperature;BME280_humidity;BME280_pressure;Samples;Min_cycle;Max_cycle;Signal;HPM_P1;HPM_P2
2023/07/01 00:00:35;;;;;;;;;;;;;;;19.88;100.00;101442.97;5037487;28;19909;-78
2023/07/01 00:03:03;;;;;;;;;;;;;;;20.25;100.00;101439.63;5019414;28;19980;-79
2023/07/01 00:08:31;;;;;;;;;;;;;;;20.31;100.00;101364.44;5037501;28;20046;-78
2023/07/01 00:13:59;;;;;;;;;;;;;;;20.14;100.00;101308.38;5037057;28;19912;-78
2023/07/01 00:19:33;;;;;;;;;;;;;;;20.22;100.00;101293.41;5037315;28;19924;-76
2023/07/01 00:25:01;;;;;;;;;;;;;;;20.09;100.00;101240.59;5037455;28;20378;-78
2023/07/01 00:30:29;;;;;;;;;;;;;;;19.03;100.00;101280.59;5037050;28;19912;-79
2023/07/01 00:32:55;;;;;;;;;;;;;;;18.65;100.00;101349.16;5035466;28;19909;-81
2023/07/01 00:35:20;;;;;;;;;;;;;;;19.25;100.00;101633.88;5019303;28;20043;-81
2023/07/01 00:37:45;;;;;;;;;;;;;;;18.68;100.00;101825.75;5019149;28;19909;-79
2023/07/01 00:40:11;;;;;;;;;;;;;;;18.52;100.00;102182.69;5035113;28;19916;-77
2023/07/01 00:42:36;;;;;;;;;;;;;;;18.46;100.00;102388.97;5036149;28;19913;-77
2023/07/01 00:45:01;;;;;;;;;;;;;;;18.52;100.00;102548.63;5035103;28;19909;-78
2023/07/01 00:47:26;;;;;;;;;;;;;;;18.50;100.00;103506.53;5036391;28;19916;-77
2023/07/01 00:49:52;;;;;;;;;;;;;;;18.76;100.00;103378.34;5036204;28;19909;-77
2023/07/01 00:52:17;;;;;;;;;;;;;;;18.45;100.00;103157.78;5018479;28;19917;-77
2023/07/01 00:54:43;;;;;;;;;;;;;;;19.08;100.00;103217.28;5036567;28;19964;-78
2023/07/01 01:00:12;;;;;;;;;;;;;;;18.23;100.00;103166.53;5036186;28;20054;-77
2023/07/01 01:02:51;;;;;;;;;;;;;;;18.64;100.00;103231.47;5036098;28;19909;-78
2023/07/01 01:05:18;;;;;;;;;;;;;;;19.12;100.00;103261.09;5036776;28;19972;-78
2023/07/01 01:10:47;;;;;;;;;;;;;;;18.50;100.00;103219.59;5036093;28;20392;-82
2023/07/01 01:16:16;;;;;;;;;;;;;;;18.60;100.00;103226.38;5036257;28;20017;-82
2023/07/01 01:18:42;;;;;;;;;;;;;;;18.42;100.00;103235.06;5034505;28;20359;-79
2023/07/01 01:21:09;;;;;;;;;;;;;;;18.52;100.00;103257.34;5017619;28;19916;-78
2023/07/01 01:23:38;;;;;;;;;;;;;;;18.41;100.00;103245.41;5017774;28;19909;-80
2023/07/01 01:29:06;;;;;;;;;;;;;;;18.85;100.00;103288.03;5035517;28;19912;-80
2023/07/01 01:31:32;;;;;;;;;;;;;;;18.78;100.00;103267.44;5035855;28;19909;-80
2023/07/01 01:33:57;;;;;;;;;;;;;;;18.87;100.00;103270.81;5035430;28;20351;-83
2023/07/01 01:36:29;;;;;;;;;;;;;;;18.80;100.00;103257.97;5035202;28;19910;-79
2023/07/01 01:38:57;;;;;;;;;;;;;;;18.68;100.00;103256.38;5034409;28;20003;-82
2023/07/01 01:41:29;;;;;;;;;;;;;;;18.62;100.00;103263.31;5033517;28;19916;-82
2023/07/01 01:44:00;;;;;;;;;;;;;;;18.80;100.00;103315.56;5035164;28;19912;-80
2023/07/01 01:46:26;;;;;;;;;;;;;;;19.14;100.00;103343.63;5033879;28;19948;-80
2023/07/01 01:48:52;;;;;;;;;;;;;;;18.66;100.00;103301.09;5034581;28;19909;-79
2023/07/01 01:51:18;;;;;;;;;;;;;;;18.44;100.00;103326.13;5017470;28;19912;-78
2023/07/01 01:53:46;;;;;;;;;;;;;;;18.92;100.00;103400.56;5017087;28;19909;-80
2023/07/01 01:59:26;;;;;;;;;;;;;;;18.82;100.00;103424.72;5022534;28;19975;-78
2023/07/01 02:01:52;;;;;;;;;;;;;;;18.99;100.00;103461.56;5033337;28;19913;-78
2023/07/01 02:04:18;;;;;;;;;;;;;;;19.07;100.00;103469.28;5034216;28;19970;-78
2023/07/01 02:06:44;;;;;;;;;;;;;;;18.85;100.00;103484.03;5033886;28;19932;-78
2023/07/01 02:09:09;;;;;;;;;;;;;;;18.82;100.00;103489.19;5033912;28;19909;-78
2023/07/01 02:11:34;;;;;;;;;;;;;;;18.87;100.00;103528.72;5034014;28;20003;-78
2023/07/01 02:14:00;;;;;;;;;;;;;;;19.26;100.00;103573.19;5033964;28;19909;-80
2023/07/01 02:16:25;;;;;;;;;;;;;;;19.05;100.00;103549.22;5033392;28;19909;-78
2023/07/01 02:18:51;;;;;;;;;;;;;;;19.06;100.00;103550.09;5034386;28;19909;-79
2023/07/01 02:21:16;;;;;;;;;;;;;;;18.92;100.00;103542.44;5016744;28;19916;-80
2023/07/01 02:23:42;;;;;;;;;;;;;;;18.78;100.00;103538.19;5033447;28;19962;-77
2023/07/01 02:26:08;;;;;;;;;;;;;;;18.96;100.00;103582.84;5033291;28;19964;-77
2023/07/01 02:28:33;;;;;;;;;;;;;;;18.80;100.00;103585.47;5016895;28;19967;-78
2023/07/01 02:34:16;;;;;;;;;;;;;;;18.73;100.00;103630.22;5034277;28;19911;-77
2023/07/01 02:36:43;;;;;;;;;;;;;;;18.89;100.00;103661.13;5034565;28;20347;-79
2023/07/01 02:39:08;;;;;;;;;;;;;;;18.74;100.00;103656.00;5034642;28;20244;-80
2023/07/01 02:41:34;;;;;;;;;;;;;;;18.24;100.00;103632.00;5032847;28;19920;-81
2023/07/01 02:47:02;;;;;;;;;;;;;;;18.02;100.00;101096.75;5056715;28;19963;-78
2023/07/01 02:49:27;;;;;;;;;;;;;;;18.37;100.00;100635.19;5040511;28;19913;-77
2023/07/01 02:51:52;;;;;;;;;;;;;;;17.88;100.00;100510.66;5034072;28;19967;-77
2023/07/01 02:54:17;;;;;;;;;;;;;;;17.83;100.00;100483.47;5033992;28;19912;-78
2023/07/01 02:59:46;;;;;;;;;;;;;;;17.52;100.00;100589.56;5028711;28;19920;-80
2023/07/01 03:02:11;;;;;;;;;;;;;;;17.52;100.00;100537.31;5016370;28;19913;-81
2023/07/01 03:04:37;;;;;;;;;;;;;;;17.46;100.00;100488.72;5032503;28;20379;-81
2023/07/01 03:07:04;;;;;;;;;;;;;;;17.82;100.00;100571.88;5032735;28;19909;-80
2023/07/01 03:09:29;;;;;;;;;;;;;;;17.71;100.00;100620.41;5016250;28;19913;-79
2023/07/01 03:14:57;;;;;;;;;;;;;;;17.62;100.00;100646.56;5034308;28;19975;-81
2023/07/01 03:17:24;;;;;;;;;;;;;;;17.50;100.00;100632.53;5032654;28;20355;-79
2023/07/01 03:19:49;;;;;;;;;;;;;;;17.69;100.00;100607.63;5034148;28;20082;-79
2023/07/01 03:25:17;;;;;;;;;;;;;;;17.86;100.00;100563.09;5037854;28;19995;-79
2023/07/01 03:30:45;;;;;;;;;;;;;;;17.98;100.00;100722.03;5037848;28;20341;-81
2023/07/01 03:33:12;;;;;;;;;;;;;;;18.57;100.00;100726.94;5036230;28;19912;-77
2023/07/01 03:35:38;;;;;;;;;;;;;;;18.74;100.00;100725.22;5036494;28;19916;-80
2023/07/01 03:38:03;;;;;;;;;;;;;;;18.55;100.00;100747.63;5019690;28;19909;-78
2023/07/01 03:43:31;;;;;;;;;;;;;;;18.81;100.00;100770.41;5037630;28;19959;-79
2023/07/01 03:45:56;;;;;;;;;;;;;;;18.66;100.00;100775.47;5036166;28;19909;-80
2023/07/01 03:48:22;;;;;;;;;;;;;;;18.77;100.00;100786.06;5035773;28;19909;-79
2023/07/01 03:50:47;;;;;;;;;;;;;;;18.71;100.00;100800.09;5035762;28;19916;-79
2023/07/01 03:53:12;;;;;;;;;;;;;;;18.56;100.00;100811.09;5036211;28;20078;-80
2023/07/01 03:55:38;;;;;;;;;;;;;;;18.85;100.00;100820.03;5035847;28;19916;-79
2023/07/01 03:58:04;;;;;;;;;;;;;;;18.96;100.00;100821.19;5035892;28;19948;-80
2023/07/01 04:00:30;;;;;;;;;;;;;;;18.97;100.00;100824.59;5037181;28;19986;-80
2023/07/01 04:05:58;;;;;;;;;;;;;;;18.98;100.00;100834.81;5037461;28;19912;-80
2023/07/01 04:08:23;;;;;;;;;;;;;;;19.28;100.00;100842.78;5035537;28;19909;-81
2023/07/01 04:10:48;;;;;;;;;;;;;;;19.38;100.00;100846.63;5019262;28;19909;-81
2023/07/01 04:13:14;;;;;;;;;;;;;;;19.39;100.00;100844.88;5020263;28;19918;-80
2023/07/01 04:15:39;;;;;;;;;;;;;;;19.45;100.00;100855.69;5036352;28;20374;-80
2023/07/01 04:21:08;;;;;;;;;;;;;;;19.71;100.00;100851.78;5037270;28;19974;-80
2023/07/01 04:23:34;;;;;;;;;;;;;;;19.75;100.00;100853.31;5036815;28;19909;-79
2023/07/01 04:25:59;;;;;;;;;;;;;;;19.81;100.00;100871.06;5035278;28;19916;-79
2023/07/01 04:28:26;;;;;;;;;;;;;;;19.98;100.00;100840.06;5035236;28;19909;-79
2023/07/01 04:30:51;;;;;;;;;;;;;;;19.92;100.00;100778.41;5034886;28;19990;-80
2023/07/01 04:33:16;;;;;;;;;;;;;;;20.39;100.00;100708.69;5035305;28;20356;-79
2023/07/01 04:35:42;;;;;;;;;;;;;;;20.30;100.00;100697.09;5035659;28;20035;-80
2023/07/01 04:38:07;;;;;;;;;;;;;;;20.52;100.00;100869.88;5035989;28;19913;-80
2023/07/01 04:43:35;;;;;;;;;;;;;;;20.41;100.00;101481.97;5036746;28;19912;-81
2023/07/01 04:46:00;;;;;;;;;;;;;;;20.45;100.00;101776.41;5035806;28;19908;-79
2023/07/01 04:48:26;;;;;;;;;;;;;;;20.63;100.00;102719.41;5034705;28;19932;-80
2023/07/01 04:50:51;;;;;;;;;;;;;;;21.00;100.00;103184.19;5034523;28;20382;-79
2023/07/01 04:53:16;;;;;;;;;;;;;;;20.89;100.00;103468.19;5035151;28;19916;-82
2023/07/01 04:58:44;;;;;;;;;;;;;;;21.32;100.00;103351.00;5036513;28;20283;-86
2023/07/01 05:04:13;;;;;;;;;;;;;;;21.68;100.00;103187.97;5037109;28;20437;-81
2023/07/01 05:06:38;;;;;;;;;;;;;;;21.94;100.00;102958.47;5034737;28;19913;-81
2023/07/01 05:09:04;;;;;;;;;;;;;;;22.06;100.00;102345.59;5034778;28;20306;-80
2023/07/01 05:11:29;;;;;;;;;;;;;;;22.26;100.00;102299.84;5035320;28;19919;-80
2023/07/01 05:17:05;;;;;;;;;;;;;;;22.39;100.00;101702.13;5036262;28;19974;-80
2023/07/01 05:19:30;;;;;;;;;;;;;;;21.80;100.00;101696.34;5035850;28;19971;-79
2023/07/01 05:21:56;;;;;;;;;;;;;;;21.88;100.00;101699.44;5034084;28;19909;-79
2023/07/01 05:24:21;;;;;;;;;;;;;;;22.56;100.00;101745.34;5034423;28;20343;-79
2023/07/01 05:29:49;;;;;;;;;;;;;;;22.30;100.00;101727.66;5035530;28;19912;-79
2023/07/01 05:32:14;;;;;;;;;;;;;;;22.85;100.00;101731.81;5033798;28;19905;-77
2023/07/01 05:34:41;;;;;;;;;;;;;;;22.75;100.00;101701.22;5033660;28;20302;-80
2023/07/01 05:37:06;;;;;;;;;;;;;;;22.87;100.00;101677.25;5034214;28;19913;-79
2023/07/01 05:39:31;;;;;;;;;;;;;;;23.53;100.00;101665.91;5034878;28;19916;-76
2023/07/01 05:41:57;;;;;;;;;;;;;;;23.11;100.00;101575.59;5034141;28;19909;-80
2023/07/01 05:44:24;;;;;;;;;;;;;;;23.47;100.00;101541.59;5035598;28;19951;-79
2023/07/01 05:46:50;;;;;;;;;;;;;;;23.85;100.00;101482.22;5035972;28;19913;-79
2023/07/01 05:52:18;;;;;;;;;;;;;;;23.95;100.00;101293.63;5034901;28;19959;-80
2023/07/01 05:54:43;;;;;;;;;;;;;;;23.31;100.00;101192.03;5035247;28;19908;-80
2023/07/01 05:57:08;;;;;;;;;;;;;;;24.22;100.00;101192.31;5035039;28;19909;-80
2023/07/01 05:59:34;;;;;;;;;;;;;;;24.37;100.00;101131.50;5034978;28;19917;-76
2023/07/01 06:05:02;;;;;;;;;;;;;;;24.41;100.00;100992.53;5034224;28;19951;-73
2023/07/01 06:07:27;;;;;;;;;;;;;;;24.82;100.00;100961.88;5015494;28;19944;-75
2023/07/01 06:09:52;;;;;;;;;;;;;;;25.09;100.00;100933.03;5033227;28;19909;-75
2023/07/01 06:12:18;;;;;;;;;;;;;;;24.83;100.00;100875.91;5032909;28;19913;-74
2023/07/01 06:14:43;;;;;;;;;;;;;;;25.32;100.00;100826.25;5032636;28;20382;-74
2023/07/01 06:20:11;;;;;;;;;;;;;;;25.02;100.00;100731.41;5033852;28;20344;-74
2023/07/01 06:22:37;;;;;;;;;;;;;;;24.63;100.00;100685.75;5015532;28;19948;-74
2023/07/01 06:25:02;;;;;;;;;;;;;;;25.37;100.00;100700.88;5032253;28;19912;-74
2023/07/01 06:27:28;;;;;;;;;;;;;;;25.96;100.00;100665.75;5033531;28;20393;-74
2023/07/01 06:32:56;;;;;;;;;;;;;;;26.38;100.00;100598.84;5033548;28;19954;-74
2023/07/01 06:35:21;;;;;;;;;;;;;;;26.02;100.00;100553.16;5031581;28;19909;-74
2023/07/01 06:37:46;;;;;;;;;;;;;;;25.48;100.00;100548.06;5031650;28;20378;-73
2023/07/01 06:40:12;;;;;;;;;;;;;;;25.96;100.00;100566.69;5031448;28;19909;-73
2023/07/01 06:42:38;;;;;;;;;;;;;;;25.81;100.00;100549.69;5031545;28;19955;-73
2023/07/01 06:45:03;;;;;;;;;;;;;;;25.99;100.00;100555.19;5014652;28;19909;-73
2023/07/01 06:47:28;;;;;;;;;;;;;;;26.10;100.00;100534.28;5032385;28;19916;-73
2023/07/01 06:49:54;;;;;;;;;;;;;;;26.38;100.00;100515.38;5032328;28;20010;-73
2023/07/01 06:52:19;;;;;;;;;;;;;;;26.45;100.00;100500.84;5031200;28;19909;-73
2023/07/01 06:54:44;;;;;;;;;;;;;;;26.90;100.00;100478.63;5030391;28;19913;-73
2023/07/01 06:57:09;;;;;;;;;;;;;;;27.13;100.00;100460.94;5032582;28;20007;-73
2023/07/01 06:59:35;;;;;;;;;;;;;;;27.35;100.00;100435.41;5027637;28;20240;-73
2023/07/01 07:05:03;;;;;;;;;;;;;;;26.74;100.00;100407.03;5013245;28;19912;-72
2023/07/01 07:07:29;;;;;;;;;;;;;;;26.89;100.00;100422.16;5012786;28;19909;-72
2023/07/01 07:09:54;;;;;;;;;;;;;;;26.24;100.00;100414.00;5028006;28;19917;-72
2023/07/01 07:12:19;;;;;;;;;;;;;;;26.90;100.00;100475.19;5023753;28;20003;-72
2023/07/01 07:17:48;;;;;;;;;;;;;;;26.39;100.00;100428.31;5013358;28;19911;-73
2023/07/01 07:23:15;;;;;;;;;;;;;;;27.48;100.00;100455.16;5012939;28;20413;-73
2023/07/01 07:25:41;;;;;;;;;;;;;;;27.59;100.00;100437.56;5027668;28;19992;-73
2023/07/01 07:28:06;;;;;;;;;;;;;;;25.94;100.00;100375.72;5012415;28;19909;-73
2023/07/01 07:30:31;;;;;;;;;;;;;;;26.45;100.00;100405.16;5012833;28;20064;-73
2023/07/01 07:35:59;;;;;;;;;;;;;;;28.18;100.00;100416.38;5013039;28;19912;-75
2023/07/01 07:38:25;;;;;;;;;;;;;;;27.96;100.00;100412.31;5012369;28;19909;-74
2023/07/01 07:40:50;;;;;;;;;;;;;;;27.21;100.00;100414.06;5013177;28;19917;-73
2023/07/01 07:43:15;;;;;;;;;;;;;;;28.13;100.00;100442.94;5027442;28;19910;-73
2023/07/01 07:48:44;;;;;;;;;;;;;;;28.99;100.00;100442.50;5012810;28;20422;-73
2023/07/01 07:51:10;;;;;;;;;;;;;;;27.74;100.00;100403.97;5012836;28;20344;-73
2023/07/01 07:53:35;;;;;;;;;;;;;;;27.91;100.00;100416.31;5010838;28;19948;-72
2023/07/01 07:56:00;;;;;;;;;;;;;;;27.84;100.00;100378.63;5010522;28;19967;-73
2023/07/01 08:01:28;;;;;;;;;;;;;;;27.49;100.00;100392.34;5018146;28;20358;-74
2023/07/01 08:03:53;;;;;;;;;;;;;;;28.28;100.00;100401.44;5030966;28;19913;-75
2023/07/01 08:06:18;;;;;;;;;;;;;;;28.19;100.00;100384.00;5014117;28;19909;-74
2023/07/01 08:08:44;;;;;;;;;;;;;;;28.73;100.00;100383.16;5035620;28;19909;-73
2023/07/01 08:11:09;;;;;;;;;;;;;;;28.34;100.00;100389.56;5035969;28;20015;-75
2023/07/01 08:13:34;;;;;;;;;;;;;;;28.33;100.00;100388.75;5035447;28;19913;-74
2023/07/01 08:16:00;;;;;;;;;;;;;;;28.95;100.00;100388.78;5035448;28;19909;-72
2023/07/01 08:18:25;;;;;;;;;;;;;;;29.19;100.00;100361.16;5033867;28;19917;-74
2023/07/01 08:20:53;;;;;;;;;;;;;;;29.18;100.00;100359.53;5034421;28;19909;-75
2023/07/01 08:26:21;;;;;;;;;;;;;;;28.87;100.00;100348.59;5035481;28;19912;-74
2023/07/01 08:28:46;;;;;;;;;;;;;;;29.74;100.00;100376.47;5035483;28;20355;-75
2023/07/01 08:31:11;;;;;;;;;;;;;;;29.43;100.00;100356.09;5035075;28;20364;-74
2023/07/01 08:33:36;;;;;;;;;;;;;;;29.40;100.00;100346.72;5034065;28;20278;-74
2023/07/01 08:39:04;;;;;;;;;;;;;;;29.38;100.00;100332.97;5035193;28;20368;-74
2023/07/01 08:41:32;;;;;;;;;;;;;;;29.60;100.00;100310.63;5034729;28;19909;-75
2023/07/01 08:43:58;;;;;;;;;;;;;;;29.89;100.00;100311.16;5035440;28;19958;-72
2023/07/01 08:46:23;;;;;;;;;;;;;;;28.61;100.00;100279.63;5034568;28;19909;-73
2023/07/01 08:51:55;;;;;;;;;;;;;;;29.88;100.00;100283.25;5035214;28;19912;-73
2023/07/01 08:54:21;;;;;;;;;;;;;;;29.95;100.00;100250.97;5034472;28;19913;-72
2023/07/01 08:56:49;;;;;;;;;;;;;;;30.94;100.00;100246.50;5034833;28;20473;-73
2023/07/01 08:59:17;;;;;;;;;;;;;;;29.56;100.00;100209.69;5035005;28;19913;-72
2023/07/01 09:01:43;;;;;;;;;;;;;;;28.33;100.00;100189.09;5033190;28;19920;-72
2023/07/01 09:04:08;;;;;;;;;;;;;;;30.56;100.00;100184.97;5033196;28;19916;-71
2023/07/01 09:06:33;;;;;;;;;;;;;;;30.90;100.00;100161.16;5033028;28;19909;-72
2023/07/01 09:09:00;;;;;;;;;;;;;;;30.63;100.00;100117.66;5033166;28;20000;-72
2023/07/01 09:11:25;;;;;;;;;;;;;;;30.46;100.00;100100.31;5034746;28;19917;-72
2023/07/01 09:13:55;;;;;;;;;;;;;;;30.53;100.00;100071.56;5033309;28;19916;-73
2023/07/01 09:16:32;;;;;;;;;;;;;;;30.05;100.00;100067.19;5033168;28;19908;-73
2023/07/01 09:19:08;;;;;;;;;;;;;;;31.01;100.00;100073.22;5015972;28;20004;-72
2023/07/01 09:21:33;;;;;;;;;;;;;;;30.37;100.00;100053.22;5034169;28;20310;-74
2023/07/01 09:24:00;;;;;;;;;;;;;;;29.58;100.00;100043.38;5016797;28;20011;-72
2023/07/01 09:29:30;;;;;;;;;;;;;;;30.74;100.00;100042.97;5034166;28;19940;-73
2023/07/01 09:31:56;;;;;;;;;;;;;;;30.52;100.00;100036.63;5033680;28;19905;-72
2023/07/01 09:34:22;;;;;;;;;;;;;;;30.54;100.00;100034.66;5032879;28;19967;-73
2023/07/01 09:36:47;;;;;;;;;;;;;;;31.03;100.00;100042.34;5016380;28;19961;-72
2023/07/01 09:42:18;;;;;;;;;;;;;;;30.42;100.00;100043.88;5034110;28;19959;-72
2023/07/01 09:45:03;;;;;;;;;;;;;;;31.84;100.00;100056.63;5016172;28;20260;-72
2023/07/01 09:47:28;;;;;;;;;;;;;;;31.00;100.00;100059.28;5033707;28;19959;-72
2023/07/01 09:49:53;;;;;;;;;;;;;;;32.11;100.00;100078.97;5032114;28;19908;-72
2023/07/01 09:52:29;;;;;;;;;;;;;;;31.42;100.00;100077.31;5032328;28;19913;-72
2023/07/01 09:54:54;;;;;;;;;;;;;;;31.90;100.00;100087.50;5033663;28;19972;-74
2023/07/01 10:00:25;;;;;;;;;;;;;;;31.29;100.00;100079.66;5033861;28;19979;-72
2023/07/01 10:02:50;;;;;;;;;;;;;;;31.86;100.00;100070.41;5033913;28;20271;-72
2023/07/01 10:05:16;;;;;;;;;;;;;;;32.17;100.00;100063.25;5033581;28;19913;-72
2023/07/01 10:07:42;;;;;;;;;;;;;;;32.55;100.00;100064.03;5031777;28;20330;-72
2023/07/01 10:13:11;;;;;;;;;;;;;;;31.55;100.00;100048.63;5033473;28;19971;-72
2023/07/01 10:15:38;;;;;;;;;;;;;;;31.28;100.00;100046.47;5032837;28;19927;-73
2023/07/01 10:18:18;;;;;;;;;;;;;;;32.23;100.00;100061.72;5033370;28;20354;-72
2023/07/01 10:20:43;;;;;;;;;;;;;;;32.90;100.00;100049.31;5032772;28;19909;-72
2023/07/01 10:23:09;;;;;;;;;;;;;;;31.61;100.00;100037.41;5032552;28;20047;-72
2023/07/01 10:25:36;;;;;;;;;;;;;;;32.20;100.00;100030.50;5032100;28;19916;-73
2023/07/01 10:28:01;;;;;;;;;;;;;;;31.70;100.00;100023.19;5033492;28;20276;-73
2023/07/01 10:30:26;;;;;;;;;;;;;;;31.87;100.00;100024.69;5032623;28;19909;-72
2023/07/01 10:36:04;;;;;;;;;;;;;;;32.34;100.00;100012.06;5033094;28;19912;-72
2023/07/01 10:38:32;;;;;;;;;;;;;;;31.46;100.00;99999.72;5033027;28;19952;-72
2023/07/01 10:40:57;;;;;;;;;;;;;;;31.94;100.00;99999.34;5015192;28;19913;-72
2023/07/01 10:46:27;;;;;;;;;;;;;;;32.91;100.00;99974.50;5032911;28;19916;-73
2023/07/01 10:51:55;;;;;;;;;;;;;;;32.13;100.00;99985.63;5032859;28;19916;-72
2023/07/01 10:54:37;;;;;;;;;;;;;;;32.50;100.00;99986.56;5031507;28;19909;-72
2023/07/01 10:57:09;;;;;;;;;;;;;;;32.27;100.00;99961.13;5014872;28;19909;-73
2023/07/01 11:02:41;;;;;;;;;;;;;;;31.50;100.00;99938.72;5023552;28;19935;-74
2023/07/01 11:05:07;;;;;;;;;;;;;;;32.65;100.00;99926.78;5032494;28;19920;-73
2023/07/01 11:07:33;;;;;;;;;;;;;;;32.42;100.00;99937.44;5032883;28;19916;-73
2023/07/01 11:09:58;;;;;;;;;;;;;;;32.63;100.00;99929.59;5032913;28;20310;-73
2023/07/01 11:15:26;;;;;;;;;;;;;;;32.11;100.00;99910.50;5032696;28;19912;-73
2023/07/01 11:20:54;;;;;;;;;;;;;;;33.13;100.00;99912.91;5032504;28;20000;-72
2023/07/01 11:23:20;;;;;;;;;;;;;;;33.03;100.00;99897.41;5032175;28;19941;-72
2023/07/01 11:25:45;;;;;;;;;;;;;;;33.19;100.00;99898.97;5031144;28;19931;-72
2023/07/01 11:28:11;;;;;;;;;;;;;;;32.54;100.00;99908.81;5030860;28;19916;-72
2023/07/01 11:33:43;;;;;;;;;;;;;;;32.11;100.00;99892.88;5032304;28;19911;-72
2023/07/01 11:36:09;;;;;;;;;;;;;;;32.34;100.00;99879.59;5030935;28;19996;-73
2023/07/01 11:38:36;;;;;;;;;;;;;;;32.81;100.00;99874.66;5030845;28;20379;-73
2023/07/01 11:44:08;;;;;;;;;;;;;;;33.23;100.00;99881.75;5047543;28;20004;-73
2023/07/01 11:46:38;;;;;;;;;;;;;;;31.04;100.00;99846.94;5019688;28;20372;-72
2023/07/01 11:49:29;;;;;;;;;;;;;;;32.30;100.00;99868.63;5036209;28;19916;-72
2023/07/01 11:54:57;;;;;;;;;;;;;;;32.54;100.00;99848.25;5036324;28;20291;-74
2023/07/01 11:57:23;;;;;;;;;;;;;;;33.19;100.00;99848.88;5035889;28;19909;-73
2023/07/01 11:59:52;;;;;;;;;;;;;;;32.50;100.00;99815.38;5036425;28;19916;-74
2023/07/01 12:02:25;;;;;;;;;;;;;;;32.62;100.00;99833.16;5034322;28;19916;-73
2023/07/01 12:07:54;;;;;;;;;;;;;;;31.93;100.00;99850.31;5036081;28;19911;-74
2023/07/01 12:13:32;;;;;;;;;;;;;;;32.09;100.00;99850.13;5035669;28;19958;-74
2023/07/01 12:15:58;;;;;;;;;;;;;;;32.88;100.00;99843.91;5017464;28;20351;-74
2023/07/01 12:18:28;;;;;;;;;;;;;;;32.17;100.00;99847.41;5035501;28;19951;-74
2023/07/01 12:20:56;;;;;;;;;;;;;;;32.57;100.00;99842.59;5017621;28;19909;-74
2023/07/01 12:26:24;;;;;;;;;;;;;;;32.80;100.00;99822.16;5035458;28;19911;-74
2023/07/01 12:28:49;;;;;;;;;;;;;;;31.59;100.00;99829.00;5033399;28;19909;-72
2023/07/01 12:31:15;;;;;;;;;;;;;;;32.20;100.00;99812.00;5033543;28;20367;-72
2023/07/01 12:33:40;;;;;;;;;;;;;;;32.28;100.00;99814.53;5034950;28;19909;-72
2023/07/01 12:39:08;;;;;;;;;;;;;;;32.39;100.00;99806.94;5035175;28;19959;-73
2023/07/01 12:41:37;;;;;;;;;;;;;;;32.32;100.00;99819.25;5033802;28;19912;-72
2023/07/01 12:44:04;;;;;;;;;;;;;;;32.24;100.00;99813.25;5035137;28;19940;-73
2023/07/01 12:46:29;;;;;;;;;;;;;;;32.70;100.00;99816.41;5035599;28;20003;-72
2023/07/01 12:48:54;;;;;;;;;;;;;;;32.55;100.00;99818.25;5016602;28;19959;-72
2023/07/01 12:51:20;;;;;;;;;;;;;;;33.44;100.00;99814.97;5034684;28;20369;-72
2023/07/01 12:53:45;;;;;;;;;;;;;;;32.62;100.00;99806.00;5034083;28;19909;-73
2023/07/01 12:56:12;;;;;;;;;;;;;;;33.13;100.00;99805.66;5033485;28;19909;-74
2023/07/01 13:01:42;;;;;;;;;;;;;;;32.12;100.00;99807.66;5034862;28;19915;-75
2023/07/01 13:04:08;;;;;;;;;;;;;;;32.11;100.00;99798.13;5035419;28;19955;-73
2023/07/01 13:06:37;;;;;;;;;;;;;;;32.40;100.00;99797.22;5035254;28;19909;-74
2023/07/01 13:12:05;;;;;;;;;;;;;;;33.01;100.00;99795.81;5035254;28;19987;-74
2023/07/01 13:14:31;;;;;;;;;;;;;;;32.56;100.00;99790.94;5016336;28;20363;-74
2023/07/01 13:16:56;;;;;;;;;;;;;;;32.49;100.00;99809.28;5033646;28;19916;-74
2023/07/01 13:19:21;;;;;;;;;;;;;;;32.69;100.00;99799.75;5034583;28;19959;-74
2023/07/01 13:24:49;;;;;;;;;;;;;;;32.97;100.00;99805.91;5034336;28;19912;-73
2023/07/01 13:27:15;;;;;;;;;;;;;;;33.83;100.00;99804.66;5033838;28;19913;-73
2023/07/01 13:29:40;;;;;;;;;;;;;;;32.99;100.00;99787.28;5033990;28;19909;-73
2023/07/01 13:35:08;;;;;;;;;;;;;;;32.97;100.00;99776.94;5034589;28;19920;-73
2023/07/01 13:37:34;;;;;;;;;;;;;;;33.08;100.00;99781.66;5032335;28;19909;-72
2023/07/01 13:39:59;;;;;;;;;;;;;;;33.48;100.00;99768.78;5034029;28;20339;-72
2023/07/01 13:42:25;;;;;;;;;;;;;;;32.68;100.00;99763.09;5032642;28;19917;-73
2023/07/01 13:44:51;;;;;;;;;;;;;;;32.29;100.00;99763.47;5016299;28;19944;-73
2023/07/01 13:47:21;;;;;;;;;;;;;;;32.28;100.00;99765.31;5016165;28;19932;-73
2023/07/01 13:49:47;;;;;;;;;;;;;;;32.41;100.00;99768.06;5033622;28;19909;-73
2023/07/01 13:52:13;;;;;;;;;;;;;;;32.56;100.00;99768.06;5032512;28;20482;-73
2023/07/01 13:57:41;;;;;;;;;;;;;;;32.08;100.00;99748.50;5033669;28;20004;-73
2023/07/01 14:00:07;;;;;;;;;;;;;;;32.56;100.00;99765.41;5015462;28;19992;-73
2023/07/01 14:02:38;;;;;;;;;;;;;;;32.50;100.00;99746.91;5033331;28;19920;-72
2023/07/01 14:08:07;;;;;;;;;;;;;;;32.10;100.00;99756.22;5033824;28;19932;-72
2023/07/01 14:10:35;;;;;;;;;;;;;;;32.10;100.00;99740.41;5015514;28;19944;-74
2023/07/01 14:13:01;;;;;;;;;;;;;;;32.75;100.00;99753.41;5033542;28;20371;-73
2023/07/01 14:15:35;;;;;;;;;;;;;;;32.95;100.00;99759.63;5033240;28;19956;-73
2023/07/01 14:18:01;;;;;;;;;;;;;;;31.96;100.00;99750.00;5033288;28;19909;-74
2023/07/01 14:20:26;;;;;;;;;;;;;;;31.97;100.00;99745.53;5031643;28;20333;-74
2023/07/01 14:22:57;;;;;;;;;;;;;;;32.37;100.00;99743.13;5032260;28;19959;-74
2023/07/01 14:25:30;;;;;;;;;;;;;;;32.63;100.00;99741.75;5015650;28;19952;-73
2023/07/01 14:27:55;;;;;;;;;;;;;;;32.65;100.00;99734.47;5033764;28;19924;-73
2023/07/01 14:30:39;;;;;;;;;;;;;;;32.25;100.00;99738.53;5031941;28;20272;-73
2023/07/01 14:33:05;;;;;;;;;;;;;;;32.48;100.00;99722.59;5031990;28;19909;-74
2023/07/01 14:35:30;;;;;;;;;;;;;;;32.30;100.00;99725.63;5032717;28;20400;-73
2023/07/01 14:37:55;;;;;;;;;;;;;;;31.86;100.00;99717.84;5033311;28;19913;-74
2023/07/01 14:40:21;;;;;;;;;;;;;;;32.34;100.00;99717.19;5032831;28;19909;-74
2023/07/01 14:42:46;;;;;;;;;;;;;;;32.23;100.00;99699.25;5033047;28;19909;-74
2023/07/01 14:45:11;;;;;;;;;;;;;;;32.44;100.00;99695.78;5032851;28;19909;-74
2023/07/01 14:47:36;;;;;;;;;;;;;;;32.81;100.00;99699.94;5032491;28;19909;-73
2023/07/01 14:50:02;;;;;;;;;;;;;;;32.83;100.00;99700.56;5031354;28;19916;-74
2023/07/01 14:52:27;;;;;;;;;;;;;;;32.29;100.00;99684.50;5032885;28;20004;-74
2023/07/01 14:54:52;;;;;;;;;;;;;;;33.19;100.00;99683.59;5031691;28;19909;-74
2023/07/01 14:57:18;;;;;;;;;;;;;;;33.19;100.00;99674.88;5031646;28;19913;-73
2023/07/01 15:02:46;;;;;;;;;;;;;;;32.62;100.00;99671.66;5032617;28;19983;-75
2023/07/01 15:08:14;;;;;;;;;;;;;;;32.18;100.00;99675.31;5032956;28;19967;-75
2023/07/01 15:10:39;;;;;;;;;;;;;;;31.97;100.00;99656.88;5032116;28;19909;-74
2023/07/01 15:13:04;;;;;;;;;;;;;;;32.06;100.00;99661.03;5032559;28;19908;-74
2023/07/01 15:15:30;;;;;;;;;;;;;;;32.24;100.00;99658.75;5033431;28;19991;-74
2023/07/01 15:20:58;;;;;;;;;;;;;;;32.13;100.00;99646.09;5036732;28;19963;-74
2023/07/01 15:23:23;;;;;;;;;;;;;;;32.34;100.00;99647.91;5036413;28;20324;-76
2023/07/01 15:25:49;;;;;;;;;;;;;;;32.50;100.00;99644.22;5035651;28;19916;-73
2023/07/01 15:28:14;;;;;;;;;;;;;;;32.41;100.00;99646.94;5035232;28;20429;-73
2023/07/01 15:30:40;;;;;;;;;;;;;;;32.07;100.00;99643.44;5036761;28;19916;-74
2023/07/01 15:33:05;;;;;;;;;;;;;;;32.40;100.00;99640.06;5036406;28;20315;-73
2023/07/01 15:35:30;;;;;;;;;;;;;;;31.73;100.00;99649.34;5036246;28;19909;-73
2023/07/01 15:37:56;;;;;;;;;;;;;;;31.72;100.00;99645.06;5035883;28;19909;-72